Terminal Aerodrome Forecast
Issued by NWS

Home | Current Version | Previous Version | Graphics & Text | Print | Product List | Glossary On
Versions: 1 2 3 4 5 6 7 8 9 10 11 12 13 14 15 16 17 18
000
FTUS42 KMHX 231310 AAA
TAFOAJ
TAF AMD
KOAJ 231310Z 2313/2412 32008KT P6SM SCT030
     FM231800 32008KT P6SM VCTS BKN040CB
     FM232200 33004KT P6SM BKN050
     FM240600 00000KT P6SM SKC
      AMD LTD TO CLD VIS AND WIND=

USA.gov is the U.S. government's official web portal to all federal, state and local government web resources and services.